Time;durP1;ratioP1;P1;durP2;ratioP2;P2;SDS_P1;SDS_P2;PMS_P1;PMS_P2;Temp;Humidity;BMP_temperature;BMP_pressure;BME280_temperature;BME280_humidity;BME280_pressure;Samples;Min_cycle;Max_cycle;Signal;HPM_P1;HPM_P2
2023/05/25 00:01:58;;;;;;;6.47;5.90;;;;;;;13.35;100.00;95062.88;5001705;28;20040;-85
2023/05/25 00:17:20;;;;;;;6.30;5.80;;;;;;;13.23;100.00;95083.34;5679838;23;20060;-85
2023/05/25 00:19:46;;;;;;;6.90;6.03;;;;;;;13.31;100.00;95075.44;4981411;28;20528;-86
2023/05/25 00:38:00;;;;;;;7.18;6.57;;;;;;;12.28;100.00;95032.38;5588310;23;20060;-79
2023/05/25 00:40:29;;;;;;;7.90;6.80;;;;;;;12.38;100.00;95043.28;5705574;23;20054;-80
2023/05/25 02:03:00;;;;;;;7.53;6.82;;;;;;;11.87;100.00;95134.00;5931791;23;20026;-79
2023/05/25 02:14:38;;;;;;;7.45;6.72;;;;;;;11.89;100.00;95203.88;5716404;23;20047;-76
2023/05/25 02:17:03;;;;;;;7.20;6.60;;;;;;;11.95;100.00;95185.81;4908313;29;20115;-82
2023/05/25 04:07:44;;;;;;;7.10;6.50;;;;;;;12.91;100.00;95022.16;5272818;23;20068;-84
2023/05/25 04:32:02;;;;;;;6.15;5.65;;;;;;;17.67;100.00;94837.72;4992954;23;20063;-93
2023/05/25 04:34:28;;;;;;;5.85;5.35;;;;;;;18.80;100.00;94809.13;4886112;29;20075;-94
2023/05/25 04:36:55;;;;;;;6.40;5.80;;;;;;;18.69;100.00;94797.56;4882284;29;20200;-93
2023/05/25 04:42:04;;;;;;;6.32;5.72;;;;;;;18.30;100.00;94814.63;5004975;23;20064;-89
2023/05/25 04:44:33;;;;;;;6.13;5.63;;;;;;;18.76;100.00;94831.59;4838999;29;20036;-92
2023/05/25 04:47:00;;;;;;;6.13;5.40;;;;;;;20.23;90.06;94793.66;4853570;29;20037;-92
2023/05/25 04:49:26;;;;;;;5.13;4.72;;;;;;;20.15;92.04;94826.41;4856840;29;20048;-76
2023/05/25 04:51:51;;;;;;;5.47;5.00;;;;;;;20.58;89.32;94825.16;4867082;29;20495;-88
2023/05/25 04:54:17;;;;;;;7.35;5.47;;;;;;;20.70;86.98;94821.44;4868581;29;20033;-83
2023/05/25 04:56:42;;;;;;;5.57;5.10;;;;;;;22.08;79.80;94818.06;4867361;29;20029;-86
2023/05/25 04:59:08;;;;;;;5.50;5.10;;;;;;;21.70;80.20;94818.03;4868342;29;20029;-84
2023/05/25 05:01:39;;;;;;;5.55;5.07;;;;;;;21.52;81.25;94819.91;4853978;29;20087;-83
2023/05/25 05:04:08;;;;;;;5.22;4.82;;;;;;;23.10;69.58;94816.25;4872593;29;20430;-84
2023/05/25 05:06:33;;;;;;;5.45;4.85;;;;;;;22.76;68.39;94811.44;4872186;29;20032;-84
2023/05/25 05:09:00;;;;;;;5.72;5.22;;;;;;;20.65;79.97;94813.44;4871874;29;20021;-84
2023/05/25 05:11:27;;;;;;;6.50;5.97;;;;;;;19.96;88.96;94817.06;4873865;29;20033;-84
2023/05/25 05:13:53;;;;;;;5.25;4.85;;;;;;;19.74;89.70;94816.06;4871213;29;20036;-84
2023/05/25 05:16:18;;;;;;;5.25;4.82;;;;;;;20.46;85.51;94815.47;4874033;29;20033;-82
2023/05/25 05:18:44;;;;;;;5.10;4.63;;;;;;;19.11;93.64;94821.16;4873450;29;20602;-84
2023/05/25 05:21:09;;;;;;;5.43;5.03;;;;;;;19.18;96.14;94816.59;4871444;29;20029;-85
2023/05/25 05:23:35;;;;;;;5.93;5.07;;;;;;;20.44;92.57;94825.44;4871022;29;20021;-85
2023/05/25 05:26:03;;;;;;;5.60;5.10;;;;;;;21.84;78.78;94822.72;4871779;29;20029;-85
2023/05/25 05:28:28;;;;;;;;;;;;;;;22.84;70.77;94822.34;4872951;29;20025;-84
2023/05/25 05:30:54;;;;;;;4.60;4.27;;;;;;;21.42;74.50;94827.66;4870981;29;19916;-84
2023/05/25 05:33:22;;;;;;;4.90;4.55;;;;;;;19.80;89.96;94831.72;4872672;29;20037;-85
2023/05/25 05:35:48;;;;;;;4.93;4.28;;;;;;;19.48;94.84;94834.94;4870784;29;20551;-79
2023/05/25 05:38:14;;;;;;;4.72;4.43;;;;;;;19.97;94.22;94834.44;4872638;29;20214;-85
2023/05/25 05:40:39;;;;;;;5.00;4.60;;;;;;;19.68;95.23;94838.81;4878386;29;20124;-85
2023/05/25 05:43:05;;;;;;;4.72;4.35;;;;;;;19.07;100.00;94843.66;4876546;29;20048;-85
2023/05/25 05:45:31;;;;;;;5.15;4.72;;;;;;;18.83;100.00;94843.59;4892451;29;20403;-85
2023/05/25 05:47:56;;;;;;;5.20;4.72;;;;;;;18.98;100.00;94843.16;4878637;29;20112;-86
2023/05/25 05:50:21;;;;;;;8.07;5.40;;;;;;;19.20;100.00;94852.13;4880779;29;20595;-84
2023/05/25 05:52:47;;;;;;;5.47;4.95;;;;;;;18.77;100.00;94846.31;4888352;29;20025;-86
2023/05/25 05:55:12;;;;;;;6.82;4.72;;;;;;;18.52;100.00;94848.28;4889455;29;20068;-85
2023/05/25 05:57:38;;;;;;;6.43;5.07;;;;;;;19.74;98.12;94837.91;4888564;29;20021;-87
2023/05/25 06:00:05;;;;;;;5.85;5.25;;;;;;;19.65;98.95;94841.13;4888897;29;20032;-79
2023/05/25 06:02:31;;;;;;;5.28;4.88;;;;;;;18.88;100.00;94838.47;4887400;29;20035;-83
2023/05/25 06:04:56;;;;;;;5.32;4.43;;;;;;;18.58;100.00;94850.00;4888968;29;20032;-87
2023/05/25 06:07:22;;;;;;;4.72;4.30;;;;;;;18.76;100.00;94845.50;4888758;29;20024;-88
2023/05/25 06:09:47;;;;;;;4.85;4.22;;;;;;;18.87;100.00;94855.25;4889054;29;20025;-88
2023/05/25 06:12:12;;;;;;;4.45;4.05;;;;;;;18.98;98.91;94858.91;4881439;29;20057;-87
2023/05/25 06:14:38;;;;;;;5.35;4.65;;;;;;;19.15;99.82;94859.06;4884088;29;20036;-89
2023/05/25 06:17:04;;;;;;;4.78;4.38;;;;;;;19.36;99.72;94867.22;4881460;29;20075;-86
2023/05/25 06:19:30;;;;;;;5.15;4.57;;;;;;;19.61;99.52;94861.78;4878300;29;20029;-87
2023/05/25 06:21:55;;;;;;;6.00;4.30;;;;;;;19.89;95.48;94861.09;4870511;29;20029;-87
2023/05/25 06:24:21;;;;;;;4.70;4.28;;;;;;;20.03;92.69;94859.81;4881119;29;20116;-87
2023/05/25 06:26:46;;;;;;;4.82;4.35;;;;;;;20.77;87.11;94858.16;4889210;29;20036;-87
2023/05/25 06:29:13;;;;;;;4.93;4.25;;;;;;;20.26;90.54;94859.78;4890338;29;20052;-88
2023/05/25 06:31:39;;;;;;;4.97;4.68;;;;;;;20.28;88.75;94867.47;4886030;29;20743;-87
2023/05/25 06:34:04;;;;;;;5.53;5.03;;;;;;;20.63;81.91;94862.09;4870361;29;20100;-86
2023/05/25 06:36:31;;;;;;;5.35;4.63;;;;;;;21.86;77.57;94854.94;4886187;29;20088;-87
2023/05/25 06:38:56;;;;;;;4.63;4.30;;;;;;;26.95;53.55;94847.69;4861583;29;20116;-85
2023/05/25 06:41:22;;;;;;;4.57;4.18;;;;;;;24.59;56.31;94846.84;4882932;29;20060;-86
2023/05/25 06:43:47;;;;;;;5.38;4.85;;;;;;;22.50;66.02;94839.41;4875447;29;20975;-82
2023/05/25 06:46:16;;;;;;;5.63;4.47;;;;;;;27.11;52.04;94845.72;4876960;29;20063;-87
2023/05/25 06:48:42;;;;;;;4.85;4.18;;;;;;;29.97;45.34;94850.63;4866885;29;20882;-87
2023/05/25 06:51:07;;;;;;;5.68;4.80;;;;;;;26.86;50.98;94852.00;4868127;29;20037;-87
2023/05/25 06:53:33;;;;;;;6.82;6.32;;;;;;;24.63;57.06;94847.88;4867099;29;20055;-87
2023/05/25 06:55:58;;;;;;;8.98;6.40;;;;;;;24.82;57.01;94853.56;4885847;29;20028;-86
2023/05/25 06:58:24;;;;;;;7.93;5.97;;;;;;;25.89;55.21;94856.00;4887147;29;20036;-85
2023/05/25 07:00:50;;;;;;;8.07;5.57;;;;;;;26.12;54.59;94851.97;4888505;29;20033;-89
2023/05/25 07:03:15;;;;;;;5.88;5.43;;;;;;;25.88;57.38;94857.06;4889505;29;20068;-85
2023/05/25 07:05:41;;;;;;;6.30;5.80;;;;;;;26.51;56.32;94852.16;4888420;29;20088;-89
2023/05/25 07:08:06;;;;;;;7.25;5.38;;;;;;;26.84;50.29;94851.50;4871539;29;20085;-88
2023/05/25 07:10:33;;;;;;;5.80;5.30;;;;;;;25.57;58.32;94845.69;4879810;29;20047;-84
2023/05/25 07:12:58;;;;;;;5.57;5.07;;;;;;;25.77;57.62;94841.44;4886618;29;20039;-86
2023/05/25 07:15:24;;;;;;;6.97;4.95;;;;;;;24.97;55.58;94838.47;4886814;29;20029;-84
2023/05/25 07:17:49;;;;;;;5.93;5.32;;;;;;;24.64;60.92;94823.78;4888316;29;20043;-88
2023/05/25 07:20:15;;;;;;;6.10;5.18;;;;;;;24.69;62.90;94841.56;4887686;29;20088;-84
2023/05/25 07:22:42;;;;;;;8.30;4.72;;;;;;;24.73;59.79;94836.53;4886153;29;20032;-80
2023/05/25 07:25:08;;;;;;;5.70;5.05;;;;;;;24.05;61.96;94825.91;4881604;29;20043;-88
2023/05/25 07:27:34;;;;;;;5.75;4.70;;;;;;;23.99;65.52;94842.81;4868771;29;20477;-84
2023/05/25 07:30:00;;;;;;;4.60;4.30;;;;;;;23.85;64.48;94840.91;4885648;29;20027;-87
2023/05/25 07:32:25;;;;;;;4.88;4.47;;;;;;;23.46;68.61;94845.66;4887367;29;20033;-86
2023/05/25 07:34:51;;;;;;;5.60;5.13;;;;;;;23.06;71.78;94854.00;4885530;29;20398;-85
2023/05/25 07:37:16;;;;;;;4.97;4.57;;;;;;;23.11;71.16;94843.50;4876038;29;20403;-90
2023/05/25 07:39:42;;;;;;;7.20;5.00;;;;;;;23.22;72.23;94849.63;4887002;29;20839;-78
2023/05/25 07:42:07;;;;;;;7.38;5.13;;;;;;;23.16;75.89;94850.66;4879603;29;20057;-82
2023/05/25 07:44:33;;;;;;;5.43;5.03;;;;;;;23.77;71.36;94865.19;4881446;29;20044;-88
2023/05/25 07:46:58;;;;;;;5.88;5.38;;;;;;;24.33;69.78;94866.34;4888027;29;20033;-85
2023/05/25 07:49:24;;;;;;;6.13;5.60;;;;;;;24.51;68.25;94860.56;4886418;29;20029;-83
2023/05/25 07:51:49;;;;;;;6.47;5.78;;;;;;;24.75;68.69;94866.22;4886676;29;20036;-85
2023/05/25 07:54:15;;;;;;;7.55;5.32;;;;;;;24.83;68.19;94852.47;4886885;29;20523;-79
2023/05/25 07:56:41;;;;;;;8.65;5.22;;;;;;;24.80;68.57;94855.63;4885985;29;20029;-77
2023/05/25 07:59:06;;;;;;;5.97;5.55;;;;;;;24.40;67.18;94861.59;4885994;29;20028;-87
2023/05/25 08:01:32;;;;;;;6.93;5.10;;;;;;;24.44;66.94;94860.81;4873930;29;20427;-79
2023/05/25 08:03:57;;;;;;;7.47;5.03;;;;;;;24.59;67.79;94863.50;4885449;29;20527;-84
2023/05/25 08:06:23;;;;;;;5.38;4.90;;;;;;;24.58;65.95;94867.22;4884713;29;20574;-83
2023/05/25 08:08:49;;;;;;;6.65;5.85;;;;;;;24.84;68.15;94862.03;4872743;29;20417;-82
2023/05/25 08:11:18;;;;;;;6.65;5.95;;;;;;;24.60;66.79;94874.91;4885315;29;20511;-87
2023/05/25 08:13:44;;;;;;;6.07;5.57;;;;;;;24.73;68.40;94876.28;4885499;29;20063;-76
2023/05/25 08:16:09;;;;;;;6.53;5.65;;;;;;;24.57;69.14;94875.44;4885278;29;20065;-89
2023/05/25 08:18:35;;;;;;;6.40;5.80;;;;;;;24.22;73.16;94865.47;4885805;29;20411;-88
2023/05/25 08:21:00;;;;;;;5.93;5.45;;;;;;;24.50;71.74;94867.72;4886118;29;20585;-86
2023/05/25 08:23:26;;;;;;;5.75;5.35;;;;;;;24.26;73.07;94863.13;4885731;29;20391;-85
2023/05/25 08:25:52;;;;;;;8.23;6.20;;;;;;;24.32;71.79;94867.38;4886271;29;20069;-85
2023/05/25 08:28:18;;;;;;;7.05;5.85;;;;;;;23.79;72.65;94857.81;4885900;29;20073;-82
2023/05/25 08:30:44;;;;;;;6.78;6.15;;;;;;;23.98;73.41;94851.03;4885585;29;20092;-75
2023/05/25 08:33:10;;;;;;;7.00;4.85;;;;;;;24.37;76.11;94852.28;4885258;29;20029;-84
2023/05/25 08:35:39;;;;;;;6.20;5.30;;;;;;;24.46;75.11;94852.63;4888550;29;20039;-87
2023/05/25 08:38:05;;;;;;;6.13;5.63;;;;;;;23.96;75.88;94855.78;4889979;29;20725;-86
2023/05/25 08:40:31;;;;;;;7.47;5.50;;;;;;;24.14;75.35;94850.09;4889056;29;20092;-86
2023/05/25 08:42:56;;;;;;;5.57;5.03;;;;;;;24.39;72.53;94850.22;4859593;29;20033;-80
2023/05/25 08:45:21;;;;;;;5.15;4.60;;;;;;;24.78;72.76;94847.97;4889436;29;20028;-84
2023/05/25 08:47:47;;;;;;;4.75;4.35;;;;;;;25.39;69.14;94835.59;4889932;29;20032;-77
2023/05/25 08:50:14;;;;;;;6.85;5.00;;;;;;;25.23;69.72;94857.88;4888498;29;20051;-75
2023/05/25 08:52:44;;;;;;;6.93;4.80;;;;;;;25.13;68.65;94849.91;4872521;29;20037;-83
2023/05/25 08:55:10;;;;;;;5.38;4.90;;;;;;;24.77;67.82;94854.31;4872654;29;20035;-89
2023/05/25 08:57:53;;;;;;;5.45;4.95;;;;;;;24.76;68.24;94865.94;4873253;29;20029;-83
2023/05/25 09:00:24;;;;;;;5.50;5.00;;;;;;;24.25;70.65;94862.31;4859928;29;20032;-89
2023/05/25 09:03:14;;;;;;;6.80;4.43;;;;;;;24.14;73.06;94869.41;4888783;29;20115;-82
2023/05/25 09:05:41;;;;;;;5.03;4.63;;;;;;;24.10;73.78;94872.81;4889540;29;20499;-77
2023/05/25 09:08:07;;;;;;;5.63;4.88;;;;;;;23.69;74.59;94876.25;4871890;29;20035;-76
2023/05/25 09:10:37;;;;;;;10.32;6.32;;;;;;;23.85;76.65;94872.66;4888180;29;20024;-79
2023/05/25 09:13:03;;;;;;;14.48;8.40;;;;;;;23.74;76.41;94882.38;4878341;29;20053;-90
2023/05/25 09:15:28;;;;;;;5.82;5.07;;;;;;;23.56;76.29;94880.13;4884793;29;20132;-76
2023/05/25 09:17:54;;;;;;;5.40;4.90;;;;;;;23.66;80.85;94880.19;4888463;29;20040;-85
2023/05/25 09:20:20;;;;;;;7.32;5.38;;;;;;;23.68;78.94;94885.22;4887775;29;20036;-77
2023/05/25 09:22:46;;;;;;;4.55;4.25;;;;;;;23.61;72.64;94882.78;4888711;29;20036;-78
2023/05/25 09:25:12;;;;;;;3.78;3.47;;;;;;;24.00;68.17;94876.19;4887731;29;20509;-78
2023/05/25 09:27:38;;;;;;;6.00;3.25;;;;;;;24.17;65.76;94875.25;4862288;29;20031;-78
2023/05/25 09:30:05;;;;;;;4.68;3.90;;;;;;;24.22;66.59;94873.41;4887694;29;20036;-80
2023/05/25 09:32:31;;;;;;;4.60;3.67;;;;;;;24.25;68.63;94875.56;4887505;29;20058;-78
2023/05/25 09:35:09;;;;;;;5.32;3.13;;;;;;;24.06;66.15;94874.34;4887893;29;20028;-78
2023/05/25 09:37:36;;;;;;;3.65;3.00;;;;;;;24.19;69.12;94876.59;4887542;29;20115;-76
2023/05/25 09:40:03;;;;;;;3.63;2.70;;;;;;;24.03;67.29;94875.69;4888321;29;20091;-79
2023/05/25 09:42:29;;;;;;;2.88;2.58;;;;;;;23.67;67.52;94870.41;4877038;29;20033;-77
2023/05/25 09:44:54;;;;;;;4.40;2.65;;;;;;;23.63;71.00;94874.63;4884681;29;20389;-76
2023/05/25 09:47:20;;;;;;;2.47;2.28;;;;;;;23.49;66.68;94869.75;4870094;29;20036;-79
2023/05/25 09:49:46;;;;;;;3.55;2.70;;;;;;;23.36;67.99;94861.41;4887402;29;20062;-78
2023/05/25 09:52:13;;;;;;;2.50;2.30;;;;;;;23.27;68.38;94879.59;4887713;29;20350;-82
2023/05/25 09:54:38;;;;;;;2.20;2.10;;;;;;;22.86;63.99;94874.97;4870583;29;20036;-84
2023/05/25 09:57:04;;;;;;;3.75;2.72;;;;;;;22.55;69.98;94866.66;4887828;29;20025;-77
2023/05/25 09:59:30;;;;;;;5.47;2.90;;;;;;;22.12;77.60;94873.78;4870208;29;20033;-77
2023/05/25 10:01:56;;;;;;;4.53;2.80;;;;;;;22.24;73.73;94862.06;4887357;29;20096;-76
2023/05/25 10:04:22;;;;;;;3.20;2.90;;;;;;;22.19;76.95;94848.78;4872337;29;20026;-76
2023/05/25 10:06:50;;;;;;;3.08;2.85;;;;;;;22.22;78.53;94852.81;4856358;29;20049;-78
2023/05/25 10:09:19;;;;;;;3.00;2.80;;;;;;;22.22;79.87;94855.44;4855558;29;20507;-75
2023/05/25 10:11:45;;;;;;;5.03;3.00;;;;;;;21.97;82.06;94842.69;4856333;29;20046;-78
2023/05/25 10:14:14;;;;;;;3.65;3.33;;;;;;;21.57;82.85;94828.94;4870364;29;20379;-79
2023/05/25 10:16:41;;;;;;;3.20;2.97;;;;;;;21.89;83.24;94845.78;4844321;29;20943;-76
2023/05/25 10:19:16;;;;;;;4.30;3.40;;;;;;;22.41;79.18;94843.53;4846268;29;20033;-75
2023/05/25 10:21:46;;;;;;;3.38;3.08;;;;;;;22.14;75.68;94843.47;4853329;29;20030;-79
2023/05/25 10:24:26;;;;;;;3.53;3.22;;;;;;;22.36;77.31;94844.25;4853468;29;20025;-76
2023/05/25 10:26:53;;;;;;;4.55;3.40;;;;;;;22.82;78.55;94842.16;4857399;29;20041;-75
2023/05/25 10:29:20;;;;;;;3.53;3.22;;;;;;;22.48;75.15;94828.28;4842694;29;20037;-76
2023/05/25 10:31:46;;;;;;;4.35;3.70;;;;;;;22.23;77.77;94836.72;4855399;29;20028;-77
2023/05/25 10:34:12;;;;;;;4.10;3.80;;;;;;;22.15;79.23;94834.50;4852359;29;20256;-80
2023/05/25 10:36:38;;;;;;;8.30;3.90;;;;;;;22.41;79.12;94825.81;4856133;29;20084;-77
2023/05/25 10:39:06;;;;;;;4.80;3.88;;;;;;;22.56;80.93;94835.78;4847761;29;20029;-78
2023/05/25 10:41:32;;;;;;;4.05;3.75;;;;;;;22.61;79.93;94833.19;4857095;29;20049;-80
2023/05/25 10:43:57;;;;;;;3.75;3.20;;;;;;;22.95;82.92;94825.91;4857643;29;20539;-76
2023/05/25 10:46:23;;;;;;;4.75;4.25;;;;;;;22.76;82.03;94817.53;4853891;29;20029;-79
2023/05/25 10:48:51;;;;;;;4.28;3.65;;;;;;;22.73;78.36;94822.53;4848977;29;20029;-80
2023/05/25 10:51:20;;;;;;;3.70;3.40;;;;;;;22.44;79.81;94804.22;4866943;29;20053;-77
2023/05/25 10:53:47;;;;;;;4.40;4.00;;;;;;;22.61;79.42;94819.97;4851328;29;20060;-82
2023/05/25 10:56:13;;;;;;;4.20;3.80;;;;;;;22.83;80.15;94812.81;4850565;29;20037;-77
2023/05/25 10:58:45;;;;;;;4.80;4.15;;;;;;;23.03;77.64;94818.31;4867776;29;20396;-77
2023/05/25 11:01:12;;;;;;;4.40;3.80;;;;;;;22.79;74.04;94806.47;4867516;29;20072;-85
2023/05/25 11:03:57;;;;;;;6.88;4.03;;;;;;;23.16;79.65;94805.72;4867288;29;20071;-79
2023/05/25 11:06:45;;;;;;;4.85;3.80;;;;;;;23.04;77.88;94798.78;4850992;29;20051;-78
2023/05/25 11:09:27;;;;;;;5.55;3.47;;;;;;;23.15;76.91;94794.34;4867023;29;20092;-76
2023/05/25 11:11:54;;;;;;;4.10;3.70;;;;;;;22.98;76.53;94799.78;4862659;29;20166;-84
2023/05/25 11:14:29;;;;;;;4.32;3.53;;;;;;;22.85;76.69;94794.09;4850728;29;20044;-78
2023/05/25 11:17:10;;;;;;;4.07;3.78;;;;;;;22.87;77.85;94795.44;4861902;29;20423;-79
2023/05/25 11:19:47;;;;;;;3.92;3.40;;;;;;;22.69;74.62;94801.09;4859593;29;20124;-84
2023/05/25 11:22:22;;;;;;;4.65;4.05;;;;;;;22.62;75.79;94804.94;4842445;29;20041;-77
2023/05/25 11:24:52;;;;;;;3.28;3.08;;;;;;;22.75;74.92;94804.56;4849568;29;20045;-75
2023/05/25 11:27:26;;;;;;;3.85;3.55;;;;;;;22.74;76.08;94789.75;4860888;29;20033;-76
2023/05/25 11:29:52;;;;;;;4.82;3.55;;;;;;;22.72;72.90;94800.59;4849510;29;20033;-77
2023/05/25 11:32:18;;;;;;;4.60;4.10;;;;;;;22.97;74.59;94792.09;4866984;29;20069;-76
2023/05/25 11:34:46;;;;;;;5.95;3.95;;;;;;;22.97;76.07;94794.72;4867066;29;20017;-79
2023/05/25 11:37:19;;;;;;;4.20;3.90;;;;;;;23.00;75.40;94797.66;4867524;29;20084;-76
2023/05/25 11:39:50;;;;;;;4.32;3.33;;;;;;;23.14;72.02;94784.03;4867056;29;20056;-78
2023/05/25 11:42:16;;;;;;;2.88;2.67;;;;;;;23.14;70.19;94795.41;4875743;29;20049;-77
2023/05/25 11:44:42;;;;;;;4.93;2.90;;;;;;;23.40;72.68;94791.94;4864704;29;20115;-77
2023/05/25 11:47:17;;;;;;;3.47;2.47;;;;;;;23.47;66.48;94786.44;4885213;29;20192;-78
2023/05/25 11:49:48;;;;;;;1.92;1.83;;;;;;;23.27;65.89;94789.69;4886294;29;20033;-78
2023/05/25 11:52:15;;;;;;;2.50;2.20;;;;;;;23.09;65.69;94784.78;4885251;29;20037;-79
2023/05/25 11:54:40;;;;;;;2.42;2.22;;;;;;;22.91;65.85;94787.81;4885452;29;20064;-78
2023/05/25 11:57:17;;;;;;;2.40;2.20;;;;;;;22.84;68.24;94784.56;4885498;29;20082;-78
2023/05/25 12:00:05;;;;;;;2.38;2.10;;;;;;;22.86;65.74;94774.56;4885123;29;20068;-79
2023/05/25 12:02:37;;;;;;;2.28;2.08;;;;;;;22.81;66.64;94774.50;4858630;29;20033;-80
2023/05/25 12:05:02;;;;;;;2.40;2.20;;;;;;;22.56;65.94;94759.19;4880105;29;20044;-78
2023/05/25 12:07:29;;;;;;;2.53;2.33;;;;;;;22.73;67.14;94770.50;4878706;29;20384;-79
2023/05/25 12:10:11;;;;;;;4.30;3.83;;;;;;;22.73;66.80;94767.84;4887676;29;20553;-79
2023/05/25 12:12:57;;;;;;;2.75;2.22;;;;;;;22.51;65.82;94770.50;4864846;29;20025;-77
2023/05/25 12:15:23;;;;;;;3.90;2.33;;;;;;;22.62;64.17;94771.41;4872568;29;20535;-77
2023/05/25 12:17:50;;;;;;;2.95;2.15;;;;;;;22.95;64.69;94762.50;4881750;29;20040;-77
2023/05/25 12:20:16;;;;;;;3.00;2.20;;;;;;;23.43;64.50;94753.63;4861149;29;20033;-81
2023/05/25 12:22:42;;;;;;;2.08;1.98;;;;;;;23.27;65.73;94759.81;4875889;29;20643;-75
2023/05/25 12:25:09;;;;;;;2.40;2.20;;;;;;;23.20;65.38;94754.75;4889142;29;20035;-76
2023/05/25 12:27:35;;;;;;;2.65;2.10;;;;;;;23.29;63.46;94752.44;4871960;29;20035;-77
2023/05/25 12:30:02;;;;;;;3.15;2.15;;;;;;;23.20;64.83;94754.75;4888876;29;20443;-81
2023/05/25 12:32:28;;;;;;;4.68;2.50;;;;;;;23.24;64.04;94744.47;4878105;29;20457;-76
2023/05/25 12:35:06;;;;;;;3.25;2.20;;;;;;;23.51;62.07;94740.69;4888535;29;20025;-77
2023/05/25 12:37:32;;;;;;;2.45;2.22;;;;;;;23.72;62.79;94738.16;4888842;29;20478;-76
2023/05/25 12:39:58;;;;;;;2.20;2.00;;;;;;;23.57;63.99;94739.66;4871889;29;20504;-78
2023/05/25 12:42:29;;;;;;;3.25;2.20;;;;;;;23.48;61.58;94735.91;4888738;29;20112;-76
2023/05/25 12:45:00;;;;;;;3.05;2.08;;;;;;;23.68;62.59;94737.88;4888616;29;20055;-83
2023/05/25 12:47:27;;;;;;;2.63;2.42;;;;;;;23.84;62.80;94741.41;4888598;29;20443;-78
2023/05/25 12:50:14;;;;;;;2.88;2.28;;;;;;;23.76;60.64;94740.03;4888864;29;20493;-80
2023/05/25 12:52:43;;;;;;;2.95;2.33;;;;;;;23.99;60.51;94736.16;4870282;29;20047;-76
2023/05/25 12:55:17;;;;;;;2.75;2.15;;;;;;;24.01;58.40;94732.22;4888970;29;20092;-79
2023/05/25 12:57:43;;;;;;;2.67;1.90;;;;;;;24.11;57.48;94723.53;4888133;29;20624;-76
2023/05/25 13:00:09;;;;;;;2.63;1.83;;;;;;;24.01;56.56;94707.59;4888138;29;20036;-76
2023/05/25 13:02:34;;;;;;;2.67;2.05;;;;;;;24.07;57.18;94714.50;4888790;29;20031;-81
2023/05/25 13:05:00;;;;;;;2.17;1.88;;;;;;;24.04;56.91;94693.84;4870824;29;20040;-77
2023/05/25 13:07:26;;;;;;;2.97;1.92;;;;;;;24.25;56.98;94706.09;4872103;29;20431;-76
2023/05/25 13:09:52;;;;;;;3.55;1.80;;;;;;;24.33;58.29;94710.91;4887702;29;20119;-76
2023/05/25 13:12:18;;;;;;;3.42;1.88;;;;;;;24.27;56.79;94705.84;4888397;29;20040;-79
2023/05/25 13:14:43;;;;;;;1.95;1.73;;;;;;;24.42;54.25;94706.66;4861400;29;20097;-77
2023/05/25 13:17:09;;;;;;;2.85;2.00;;;;;;;24.08;54.12;94708.16;4884848;29;20032;-75
2023/05/25 13:19:34;;;;;;;3.75;2.10;;;;;;;24.48;54.89;94702.97;4871202;29;20016;-78
2023/05/25 13:22:00;;;;;;;3.25;2.38;;;;;;;24.53;55.38;94702.97;4886378;29;20076;-79
2023/05/25 13:24:26;;;;;;;2.10;1.90;;;;;;;24.62;55.85;94700.59;4888562;29;20024;-79
2023/05/25 13:26:52;;;;;;;2.65;2.10;;;;;;;24.30;54.94;94706.13;4886955;29;20112;-77
2023/05/25 13:29:17;;;;;;;2.97;2.33;;;;;;;24.37;55.53;94703.22;4888286;29;20017;-77
2023/05/25 13:31:43;;;;;;;4.18;2.35;;;;;;;24.34;56.50;94701.09;4887416;29;20032;-81
2023/05/25 13:34:09;;;;;;;2.05;1.88;;;;;;;24.59;54.98;94696.59;4888106;29;20040;-78
2023/05/25 13:36:34;;;;;;;4.05;2.28;;;;;;;24.92;53.14;94695.31;4888034;29;20035;-79
2023/05/25 13:39:00;;;;;;;2.55;2.35;;;;;;;24.67;54.22;94698.75;4887651;29;20028;-80
2023/05/25 13:41:27;;;;;;;2.22;2.00;;;;;;;24.73;54.13;94694.22;4885556;29;20037;-77
2023/05/25 13:43:52;;;;;;;5.40;2.20;;;;;;;24.87;53.57;94702.50;4876512;29;20039;-79
2023/05/25 13:46:18;;;;;;;5.40;2.20;;;;;;;25.25;52.44;94707.22;4888133;29;20115;-79
2023/05/25 13:48:47;;;;;;;2.25;2.05;;;;;;;25.14;49.85;94705.66;4887055;29;20033;-77
2023/05/25 13:51:13;;;;;;;;;;;;;;;25.34;53.38;94708.25;4888575;29;20384;-80
2023/05/25 13:53:38;;;;;;;2.67;2.10;;;;;;;24.95;52.90;94712.53;4887154;29;19931;-79
2023/05/25 13:56:04;;;;;;;2.78;2.42;;;;;;;24.92;53.98;94719.19;4887299;29;20025;-83
2023/05/25 13:58:30;;;;;;;3.45;2.17;;;;;;;24.36;55.01;94718.31;4874729;29;20040;-82
2023/05/25 14:00:55;;;;;;;2.30;2.00;;;;;;;23.63;60.23;94731.78;4887285;29;20372;-80
2023/05/25 14:03:21;;;;;;;2.05;1.67;;;;;;;22.25;65.80;94736.97;4888810;29;20957;-89
2023/05/25 14:05:46;;;;;;;4.95;1.45;;;;;;;21.16;65.25;94733.44;4887001;29;20047;-86
2023/05/25 14:08:12;;;;;;;3.47;1.80;;;;;;;20.79;68.06;94751.56;4887879;29;20020;-80
2023/05/25 14:10:38;;;;;;;1.65;1.55;;;;;;;20.45;73.47;94744.66;4862657;29;20041;-95
2023/05/25 14:13:03;;;;;;;5.40;1.80;;;;;;;20.56;72.83;94750.88;4862591;29;20033;-92
2023/05/25 14:15:29;;;;;;;2.30;2.10;;;;;;;20.01;79.02;94761.94;4872838;29;20036;-82
2023/05/25 14:17:55;;;;;;;2.22;1.88;;;;;;;20.27;81.77;94766.69;4869041;29;20040;-91
2023/05/25 14:20:24;;;;;;;2.35;2.17;;;;;;;19.33;91.51;94765.22;4854117;29;20025;-88
2023/05/25 14:22:55;;;;;;;3.63;3.10;;;;;;;19.14;99.93;94750.59;4855878;29;20120;-84
2023/05/25 14:25:20;;;;;;;4.15;3.20;;;;;;;19.77;100.00;94770.94;4856519;29;20189;-80
2023/05/25 14:27:46;;;;;;;3.33;2.25;;;;;;;19.27;100.00;94784.53;4886382;29;20115;-83
2023/05/25 14:30:11;;;;;;;3.83;2.78;;;;;;;18.61;100.00;94770.84;4879818;29;20103;-77
2023/05/25 14:32:37;;;;;;;3.95;2.60;;;;;;;18.72;100.00;94793.72;4880342;29;20409;-78
2023/05/25 14:35:02;;;;;;;2.92;2.38;;;;;;;18.95;100.00;94793.75;4860618;29;20032;-77
2023/05/25 14:37:28;;;;;;;3.95;2.95;;;;;;;18.93;100.00;94770.34;4886966;29;20092;-78
2023/05/25 14:39:53;;;;;;;2.92;2.42;;;;;;;19.38;100.00;94785.56;4846025;29;20559;-81
2023/05/25 14:42:19;;;;;;;2.78;2.58;;;;;;;19.10;100.00;94786.25;4864344;29;20037;-76
2023/05/25 14:44:45;;;;;;;2.88;2.53;;;;;;;19.54;100.00;94790.16;4866506;29;20866;-78
2023/05/25 14:47:10;;;;;;;2.65;2.45;;;;;;;19.46;100.00;94780.78;4851268;29;20029;-80
2023/05/25 14:49:36;;;;;;;2.60;2.40;;;;;;;19.89;100.00;94774.31;4867540;29;20033;-80
2023/05/25 14:52:01;;;;;;;2.65;2.45;;;;;;;19.95;100.00;94768.13;4867942;29;20507;-81
2023/05/25 14:54:27;;;;;;;3.88;2.35;;;;;;;18.90;100.00;94812.00;4868145;29;20130;-87
2023/05/25 14:56:52;;;;;;;3.85;2.80;;;;;;;18.35;100.00;94835.75;4867865;29;20029;-77
2023/05/25 14:59:18;;;;;;;4.13;3.35;;;;;;;18.55;100.00;94853.09;4866332;29;20503;-78
2023/05/25 15:01:45;;;;;;;4.88;3.47;;;;;;;18.69;100.00;94857.13;4867213;29;20037;-77
2023/05/25 15:04:11;;;;;;;3.60;3.30;;;;;;;18.73;100.00;94871.41;4867538;29;20136;-78
2023/05/25 15:06:38;;;;;;;3.13;2.78;;;;;;;18.22;100.00;94898.84;4865076;29;20032;-76
2023/05/25 15:09:04;;;;;;;4.55;3.50;;;;;;;18.28;100.00;94920.75;4849308;29;20037;-75
2023/05/25 15:11:30;;;;;;;3.65;2.80;;;;;;;17.95;100.00;94976.13;4866835;29;20033;-74
2023/05/25 15:13:59;;;;;;;2.97;2.78;;;;;;;18.18;100.00;94981.56;4867370;29;20032;-76
2023/05/25 15:16:25;;;;;;;3.08;2.63;;;;;;;18.98;100.00;94978.88;4861218;29;20476;-75
2023/05/25 15:18:50;;;;;;;3.20;2.70;;;;;;;18.42;100.00;94943.22;4861377;29;20041;-77
2023/05/25 15:21:16;;;;;;;5.07;2.55;;;;;;;18.32;100.00;94919.31;4867509;29;20084;-74
2023/05/25 15:23:41;;;;;;;2.88;2.67;;;;;;;17.99;100.00;94950.28;4860726;29;20388;-75
2023/05/25 15:26:10;;;;;;;3.55;3.05;;;;;;;18.71;100.00;94965.31;4867233;29;20040;-75
2023/05/25 15:28:35;;;;;;;4.25;2.33;;;;;;;18.36;100.00;94929.16;4864241;29;20061;-75
2023/05/25 15:31:01;;;;;;;2.67;2.28;;;;;;;19.17;100.00;94872.81;4865089;29;20087;-75
2023/05/25 15:33:27;;;;;;;2.72;2.15;;;;;;;19.24;100.00;94849.84;4858636;29;20036;-75
2023/05/25 15:35:52;;;;;;;2.58;2.38;;;;;;;18.46;100.00;94870.94;4863544;29;20476;-84
2023/05/25 15:38:18;;;;;;;2.92;2.72;;;;;;;18.28;100.00;94916.31;4861315;29;20045;-75
2023/05/25 15:40:43;;;;;;;3.17;2.88;;;;;;;18.23;100.00;94921.44;4867327;29;20041;-76
2023/05/25 15:43:09;;;;;;;3.28;2.97;;;;;;;18.01;100.00;94938.59;4867090;29;20693;-74